sensor_id;sensor_type;location;lat;lon;timestamp;P1;durP1;ratioP1;P2;durP2;ratioP2
24619;SDS011;12763;55.802;37.404;2022-10-16T00:01:59;8.50;;;4.78;;
24619;SDS011;12763;55.802;37.404;2022-10-16T00:04:25;8.25;;;4.50;;
24619;SDS011;12763;55.802;37.404;2022-10-16T00:06:59;12.65;;;5.28;;
24619;SDS011;12763;55.802;37.404;2022-10-16T00:09:28;8.63;;;4.68;;
24619;SDS011;12763;55.802;37.404;2022-10-16T00:11:55;10.73;;;4.97;;
24619;SDS011;12763;55.802;37.404;2022-10-16T00:14:24;10.75;;;5.00;;
24619;SDS011;12763;55.802;37.404;2022-10-16T00:17:03;10.60;;;4.50;;
24619;SDS011;12763;55.802;37.404;2022-10-16T00:19:29;10.07;;;4.70;;
24619;SDS011;12763;55.802;37.404;2022-10-16T00:21:56;12.02;;;5.10;;
24619;SDS011;12763;55.802;37.404;2022-10-16T00:24:41;11.05;;;5.07;;
24619;SDS011;12763;55.802;37.404;2022-10-16T00:27:07;13.30;;;4.88;;
24619;SDS011;12763;55.802;37.404;2022-10-16T00:29:34;15.55;;;5.32;;
24619;SDS011;12763;55.802;37.404;2022-10-16T00:32:06;10.48;;;4.30;;
24619;SDS011;12763;55.802;37.404;2022-10-16T00:34:44;12.23;;;4.35;;
24619;SDS011;12763;55.802;37.404;2022-10-16T00:37:14;12.02;;;4.97;;
24619;SDS011;12763;55.802;37.404;2022-10-16T00:39:40;9.55;;;4.60;;
24619;SDS011;12763;55.802;37.404;2022-10-16T00:42:09;9.30;;;4.82;;
24619;SDS011;12763;55.802;37.404;2022-10-16T00:49:55;8.60;;;4.27;;
24619;SDS011;12763;55.802;37.404;2022-10-16T00:52:27;8.75;;;4.30;;
24619;SDS011;12763;55.802;37.404;2022-10-16T00:54:56;14.60;;;4.75;;
24619;SDS011;12763;55.802;37.404;2022-10-16T00:57:28;11.30;;;5.18;;
24619;SDS011;12763;55.802;37.404;2022-10-16T00:59:59;11.38;;;5.63;;
24619;SDS011;12763;55.802;37.404;2022-10-16T01:02:25;16.23;;;5.68;;
24619;SDS011;12763;55.802;37.404;2022-10-16T01:05:00;15.75;;;5.47;;
24619;SDS011;12763;55.802;37.404;2022-10-16T01:24:16;10.63;;;4.63;;
24619;SDS011;12763;55.802;37.404;2022-10-16T01:32:10;7.40;;;4.18;;
24619;SDS011;12763;55.802;37.404;2022-10-16T01:35:11;9.88;;;4.10;;
24619;SDS011;12763;55.802;37.404;2022-10-16T01:37:46;11.30;;;4.45;;
24619;SDS011;12763;55.802;37.404;2022-10-16T01:40:21;11.35;;;4.97;;
24619;SDS011;12763;55.802;37.404;2022-10-16T01:43:03;9.73;;;4.63;;
24619;SDS011;12763;55.802;37.404;2022-10-16T01:45:36;10.32;;;4.75;;
24619;SDS011;12763;55.802;37.404;2022-10-16T01:48:04;9.13;;;4.70;;
24619;SDS011;12763;55.802;37.404;2022-10-16T01:50:38;11.15;;;4.55;;
24619;SDS011;12763;55.802;37.404;2022-10-16T01:53:13;8.57;;;4.55;;
24619;SDS011;12763;55.802;37.404;2022-10-16T01:55:43;9.55;;;4.22;;
24619;SDS011;12763;55.802;37.404;2022-10-16T01:58:15;8.52;;;4.70;;
24619;SDS011;12763;55.802;37.404;2022-10-16T02:00:45;12.35;;;5.32;;
24619;SDS011;12763;55.802;37.404;2022-10-16T02:03:12;8.15;;;4.70;;
24619;SDS011;12763;55.802;37.404;2022-10-16T02:08:07;12.80;;;4.90;;
24619;SDS011;12763;55.802;37.404;2022-10-16T02:10:34;9.18;;;4.70;;
24619;SDS011;12763;55.802;37.404;2022-10-16T02:13:06;14.48;;;5.53;;
24619;SDS011;12763;55.802;37.404;2022-10-16T02:15:56;11.00;;;5.22;;
24619;SDS011;12763;55.802;37.404;2022-10-16T02:18:23;12.80;;;4.97;;
24619;SDS011;12763;55.802;37.404;2022-10-16T02:26:09;10.70;;;5.45;;
24619;SDS011;12763;55.802;37.404;2022-10-16T02:28:42;14.15;;;5.57;;
24619;SDS011;12763;55.802;37.404;2022-10-16T02:31:18;11.20;;;5.60;;
24619;SDS011;12763;55.802;37.404;2022-10-16T02:34:01;11.60;;;4.93;;
24619;SDS011;12763;55.802;37.404;2022-10-16T02:36:35;8.30;;;4.50;;
24619;SDS011;12763;55.802;37.404;2022-10-16T02:39:05;10.98;;;4.65;;
24619;SDS011;12763;55.802;37.404;2022-10-16T02:41:35;8.48;;;4.78;;
24619;SDS011;12763;55.802;37.404;2022-10-16T02:44:02;14.45;;;6.03;;
24619;SDS011;12763;55.802;37.404;2022-10-16T02:46:35;9.32;;;4.60;;
24619;SDS011;12763;55.802;37.404;2022-10-16T02:49:03;11.35;;;4.95;;
24619;SDS011;12763;55.802;37.404;2022-10-16T02:51:33;10.02;;;4.85;;
24619;SDS011;12763;55.802;37.404;2022-10-16T02:54:00;9.93;;;4.53;;
24619;SDS011;12763;55.802;37.404;2022-10-16T02:56:27;8.98;;;4.47;;
24619;SDS011;12763;55.802;37.404;2022-10-16T02:59:05;10.07;;;4.30;;
24619;SDS011;12763;55.802;37.404;2022-10-16T03:01:38;12.48;;;5.22;;
24619;SDS011;12763;55.802;37.404;2022-10-16T03:04:04;8.05;;;4.50;;
24619;SDS011;12763;55.802;37.404;2022-10-16T03:06:31;12.15;;;4.65;;
24619;SDS011;12763;55.802;37.404;2022-10-16T03:08:58;11.60;;;4.63;;
24619;SDS011;12763;55.802;37.404;2022-10-16T03:11:24;11.13;;;4.45;;
24619;SDS011;12763;55.802;37.404;2022-10-16T03:13:50;11.02;;;4.82;;
24619;SDS011;12763;55.802;37.404;2022-10-16T03:16:19;5.97;;;4.00;;
24619;SDS011;12763;55.802;37.404;2022-10-16T03:18:50;10.77;;;5.25;;
24619;SDS011;12763;55.802;37.404;2022-10-16T03:21:17;13.27;;;5.10;;
24619;SDS011;12763;55.802;37.404;2022-10-16T03:23:44;11.50;;;4.43;;
24619;SDS011;12763;55.802;37.404;2022-10-16T03:26:10;10.43;;;4.85;;
24619;SDS011;12763;55.802;37.404;2022-10-16T03:28:39;13.85;;;4.70;;
24619;SDS011;12763;55.802;37.404;2022-10-16T03:31:05;17.80;;;5.07;;
24619;SDS011;12763;55.802;37.404;2022-10-16T03:33:32;11.35;;;5.07;;
24619;SDS011;12763;55.802;37.404;2022-10-16T03:35:59;13.57;;;4.90;;
24619;SDS011;12763;55.802;37.404;2022-10-16T03:38:29;14.90;;;4.80;;
24619;SDS011;12763;55.802;37.404;2022-10-16T03:40:55;10.48;;;5.32;;
24619;SDS011;12763;55.802;37.404;2022-10-16T03:43:22;12.30;;;5.22;;
24619;SDS011;12763;55.802;37.404;2022-10-16T03:45:51;10.43;;;5.05;;
24619;SDS011;12763;55.802;37.404;2022-10-16T03:48:19;10.23;;;5.05;;
24619;SDS011;12763;55.802;37.404;2022-10-16T03:50:46;10.77;;;5.40;;
24619;SDS011;12763;55.802;37.404;2022-10-16T03:53:15;10.60;;;5.07;;
24619;SDS011;12763;55.802;37.404;2022-10-16T03:55:44;18.27;;;5.53;;
24619;SDS011;12763;55.802;37.404;2022-10-16T03:58:11;10.45;;;5.15;;
24619;SDS011;12763;55.802;37.404;2022-10-16T04:00:41;12.25;;;6.07;;
24619;SDS011;12763;55.802;37.404;2022-10-16T04:03:19;12.73;;;4.75;;
24619;SDS011;12763;55.802;37.404;2022-10-16T04:06:01;11.45;;;4.75;;
24619;SDS011;12763;55.802;37.404;2022-10-16T04:08:28;14.23;;;5.15;;
24619;SDS011;12763;55.802;37.404;2022-10-16T04:11:00;9.15;;;4.30;;
24619;SDS011;12763;55.802;37.404;2022-10-16T04:13:27;10.20;;;4.85;;
24619;SDS011;12763;55.802;37.404;2022-10-16T04:15:55;14.30;;;5.30;;
24619;SDS011;12763;55.802;37.404;2022-10-16T04:18:27;11.93;;;5.47;;
24619;SDS011;12763;55.802;37.404;2022-10-16T04:20:56;14.20;;;5.30;;
24619;SDS011;12763;55.802;37.404;2022-10-16T04:23:27;12.43;;;6.20;;
24619;SDS011;12763;55.802;37.404;2022-10-16T04:25:56;16.55;;;4.97;;
24619;SDS011;12763;55.802;37.404;2022-10-16T04:28:23;10.60;;;5.22;;
24619;SDS011;12763;55.802;37.404;2022-10-16T04:30:53;15.93;;;5.85;;
24619;SDS011;12763;55.802;37.404;2022-10-16T04:33:20;11.18;;;5.20;;
24619;SDS011;12763;55.802;37.404;2022-10-16T04:35:58;10.77;;;5.57;;
24619;SDS011;12763;55.802;37.404;2022-10-16T04:38:31;17.10;;;5.40;;
24619;SDS011;12763;55.802;37.404;2022-10-16T04:41:00;11.57;;;4.85;;
24619;SDS011;12763;55.802;37.404;2022-10-16T04:43:26;13.77;;;5.45;;
24619;SDS011;12763;55.802;37.404;2022-10-16T04:45:53;13.45;;;5.30;;
24619;SDS011;12763;55.802;37.404;2022-10-16T04:48:25;10.63;;;5.93;;
24619;SDS011;12763;55.802;37.404;2022-10-16T04:50:52;12.15;;;5.78;;
24619;SDS011;12763;55.802;37.404;2022-10-16T04:53:19;14.18;;;5.55;;
24619;SDS011;12763;55.802;37.404;2022-10-16T04:55:45;14.23;;;5.50;;
24619;SDS011;12763;55.802;37.404;2022-10-16T04:58:11;13.00;;;5.38;;
24619;SDS011;12763;55.802;37.404;2022-10-16T05:00:38;13.32;;;5.35;;
24619;SDS011;12763;55.802;37.404;2022-10-16T05:03:05;15.50;;;5.25;;
24619;SDS011;12763;55.802;37.404;2022-10-16T05:05:47;22.70;;;5.72;;
24619;SDS011;12763;55.802;37.404;2022-10-16T05:08:13;10.15;;;5.10;;
24619;SDS011;12763;55.802;37.404;2022-10-16T05:10:41;8.88;;;4.90;;
24619;SDS011;12763;55.802;37.404;2022-10-16T05:13:09;14.25;;;6.25;;
24619;SDS011;12763;55.802;37.404;2022-10-16T05:15:36;15.20;;;5.50;;
24619;SDS011;12763;55.802;37.404;2022-10-16T05:18:02;8.73;;;4.93;;
24619;SDS011;12763;55.802;37.404;2022-10-16T05:20:29;17.98;;;6.05;;
24619;SDS011;12763;55.802;37.404;2022-10-16T05:22:56;11.05;;;6.35;;
24619;SDS011;12763;55.802;37.404;2022-10-16T05:25:25;20.13;;;7.03;;
24619;SDS011;12763;55.802;37.404;2022-10-16T05:27:53;11.02;;;5.82;;
24619;SDS011;12763;55.802;37.404;2022-10-16T05:30:19;13.20;;;5.03;;
24619;SDS011;12763;55.802;37.404;2022-10-16T05:32:51;12.40;;;5.22;;
24619;SDS011;12763;55.802;37.404;2022-10-16T05:35:18;16.55;;;5.43;;
24619;SDS011;12763;55.802;37.404;2022-10-16T05:37:46;9.48;;;5.03;;
24619;SDS011;12763;55.802;37.404;2022-10-16T05:40:13;13.68;;;5.40;;
24619;SDS011;12763;55.802;37.404;2022-10-16T05:42:44;14.23;;;5.60;;
24619;SDS011;12763;55.802;37.404;2022-10-16T05:45:13;14.68;;;5.50;;
24619;SDS011;12763;55.802;37.404;2022-10-16T05:47:43;15.27;;;6.00;;
24619;SDS011;12763;55.802;37.404;2022-10-16T05:50:12;14.50;;;5.82;;
24619;SDS011;12763;55.802;37.404;2022-10-16T05:52:41;12.95;;;5.68;;
24619;SDS011;12763;55.802;37.404;2022-10-16T05:55:10;13.93;;;5.93;;
24619;SDS011;12763;55.802;37.404;2022-10-16T05:57:37;10.25;;;5.32;;
24619;SDS011;12763;55.802;37.404;2022-10-16T06:00:06;11.02;;;5.63;;
24619;SDS011;12763;55.802;37.404;2022-10-16T06:02:41;15.10;;;5.95;;
24619;SDS011;12763;55.802;37.404;2022-10-16T06:05:10;12.45;;;7.00;;
24619;SDS011;12763;55.802;37.404;2022-10-16T06:07:37;18.70;;;6.95;;
24619;SDS011;12763;55.802;37.404;2022-10-16T06:10:04;17.45;;;6.03;;
24619;SDS011;12763;55.802;37.404;2022-10-16T06:12:36;12.88;;;6.32;;
24619;SDS011;12763;55.802;37.404;2022-10-16T06:15:04;10.40;;;5.25;;
24619;SDS011;12763;55.802;37.404;2022-10-16T06:17:30;15.60;;;6.10;;
24619;SDS011;12763;55.802;37.404;2022-10-16T06:19:57;11.38;;;5.70;;
24619;SDS011;12763;55.802;37.404;2022-10-16T06:22:23;20.30;;;5.55;;
24619;SDS011;12763;55.802;37.404;2022-10-16T06:24:50;14.55;;;5.72;;
24619;SDS011;12763;55.802;37.404;2022-10-16T06:27:19;13.82;;;5.47;;
24619;SDS011;12763;55.802;37.404;2022-10-16T06:29:49;13.88;;;5.95;;
24619;SDS011;12763;55.802;37.404;2022-10-16T06:32:19;12.13;;;5.97;;
24619;SDS011;12763;55.802;37.404;2022-10-16T06:34:49;12.73;;;5.10;;
24619;SDS011;12763;55.802;37.404;2022-10-16T06:37:25;13.95;;;5.72;;
24619;SDS011;12763;55.802;37.404;2022-10-16T06:39:56;12.82;;;5.57;;
24619;SDS011;12763;55.802;37.404;2022-10-16T06:42:27;18.27;;;6.82;;
24619;SDS011;12763;55.802;37.404;2022-10-16T06:44:57;17.48;;;6.95;;
24619;SDS011;12763;55.802;37.404;2022-10-16T06:47:29;10.63;;;5.28;;
24619;SDS011;12763;55.802;37.404;2022-10-16T06:49:59;18.50;;;6.50;;
24619;SDS011;12763;55.802;37.404;2022-10-16T06:52:36;15.27;;;6.50;;
24619;SDS011;12763;55.802;37.404;2022-10-16T06:55:02;12.48;;;6.28;;
24619;SDS011;12763;55.802;37.404;2022-10-16T06:57:29;16.95;;;6.07;;
24619;SDS011;12763;55.802;37.404;2022-10-16T06:59:57;11.93;;;5.65;;
24619;SDS011;12763;55.802;37.404;2022-10-16T07:02:23;22.33;;;6.50;;
24619;SDS011;12763;55.802;37.404;2022-10-16T07:04:49;9.25;;;5.18;;
24619;SDS011;12763;55.802;37.404;2022-10-16T07:07:15;13.63;;;5.65;;
24619;SDS011;12763;55.802;37.404;2022-10-16T07:09:45;13.13;;;5.70;;
24619;SDS011;12763;55.802;37.404;2022-10-16T07:12:19;12.38;;;5.47;;
24619;SDS011;12763;55.802;37.404;2022-10-16T07:14:50;10.40;;;5.57;;
24619;SDS011;12763;55.802;37.404;2022-10-16T07:17:18;15.27;;;5.95;;
24619;SDS011;12763;55.802;37.404;2022-10-16T07:19:47;15.10;;;6.20;;
24619;SDS011;12763;55.802;37.404;2022-10-16T07:22:17;8.52;;;5.15;;
24619;SDS011;12763;55.802;37.404;2022-10-16T07:24:43;14.50;;;6.07;;
24619;SDS011;12763;55.802;37.404;2022-10-16T07:27:10;14.45;;;6.05;;
24619;SDS011;12763;55.802;37.404;2022-10-16T07:29:38;10.00;;;5.88;;
24619;SDS011;12763;55.802;37.404;2022-10-16T07:32:04;15.38;;;5.47;;
24619;SDS011;12763;55.802;37.404;2022-10-16T07:34:30;14.30;;;5.93;;
24619;SDS011;12763;55.802;37.404;2022-10-16T07:36:56;11.85;;;5.70;;
24619;SDS011;12763;55.802;37.404;2022-10-16T07:39:23;9.73;;;6.00;;
24619;SDS011;12763;55.802;37.404;2022-10-16T07:41:49;11.45;;;4.97;;
24619;SDS011;12763;55.802;37.404;2022-10-16T07:44:18;11.43;;;5.10;;
24619;SDS011;12763;55.802;37.404;2022-10-16T07:46:46;11.63;;;6.15;;
24619;SDS011;12763;55.802;37.404;2022-10-16T07:49:15;14.13;;;6.43;;
24619;SDS011;12763;55.802;37.404;2022-10-16T07:51:41;18.27;;;6.07;;
24619;SDS011;12763;55.802;37.404;2022-10-16T07:54:08;20.80;;;6.35;;
24619;SDS011;12763;55.802;37.404;2022-10-16T07:56:38;17.38;;;5.78;;
24619;SDS011;12763;55.802;37.404;2022-10-16T07:59:04;20.88;;;6.00;;
24619;SDS011;12763;55.802;37.404;2022-10-16T08:01:35;18.85;;;5.15;;
24619;SDS011;12763;55.802;37.404;2022-10-16T08:04:01;19.63;;;5.70;;
24619;SDS011;12763;55.802;37.404;2022-10-16T08:06:27;10.55;;;6.03;;
24619;SDS011;12763;55.802;37.404;2022-10-16T08:08:59;16.20;;;5.80;;
24619;SDS011;12763;55.802;37.404;2022-10-16T08:11:25;12.30;;;5.32;;
24619;SDS011;12763;55.802;37.404;2022-10-16T08:13:52;10.77;;;5.32;;
24619;SDS011;12763;55.802;37.404;2022-10-16T08:16:18;10.73;;;5.35;;
24619;SDS011;12763;55.802;37.404;2022-10-16T08:18:44;12.30;;;5.32;;
24619;SDS011;12763;55.802;37.404;2022-10-16T08:21:18;11.85;;;5.22;;
24619;SDS011;12763;55.802;37.404;2022-10-16T08:23:47;13.73;;;5.47;;
24619;SDS011;12763;55.802;37.404;2022-10-16T08:26:17;16.50;;;5.78;;
24619;SDS011;12763;55.802;37.404;2022-10-16T08:28:49;11.75;;;5.35;;
24619;SDS011;12763;55.802;37.404;2022-10-16T08:31:20;8.98;;;4.93;;
24619;SDS011;12763;55.802;37.404;2022-10-16T08:33:47;14.15;;;5.13;;
24619;SDS011;12763;55.802;37.404;2022-10-16T08:36:21;13.90;;;5.32;;
24619;SDS011;12763;55.802;37.404;2022-10-16T08:38:50;7.88;;;4.28;;
24619;SDS011;12763;55.802;37.404;2022-10-16T08:47:19;12.25;;;5.22;;
24619;SDS011;12763;55.802;37.404;2022-10-16T08:52:29;6.50;;;4.32;;
24619;SDS011;12763;55.802;37.404;2022-10-16T08:55:00;10.98;;;4.53;;
24619;SDS011;12763;55.802;37.404;2022-10-16T08:57:27;12.55;;;4.65;;
24619;SDS011;12763;55.802;37.404;2022-10-16T08:59:58;5.93;;;3.25;;
24619;SDS011;12763;55.802;37.404;2022-10-16T09:02:32;13.67;;;4.03;;
24619;SDS011;12763;55.802;37.404;2022-10-16T09:10:40;6.70;;;3.70;;
24619;SDS011;12763;55.802;37.404;2022-10-16T09:21:31;7.32;;;3.88;;
24619;SDS011;12763;55.802;37.404;2022-10-16T09:24:24;10.68;;;3.72;;
24619;SDS011;12763;55.802;37.404;2022-10-16T09:26:49;6.90;;;4.10;;
24619;SDS011;12763;55.802;37.404;2022-10-16T09:29:17;11.00;;;4.38;;
24619;SDS011;12763;55.802;37.404;2022-10-16T09:31:56;7.55;;;3.95;;
24619;SDS011;12763;55.802;37.404;2022-10-16T09:34:34;9.52;;;3.50;;
24619;SDS011;12763;55.802;37.404;2022-10-16T09:37:09;11.90;;;4.18;;
24619;SDS011;12763;55.802;37.404;2022-10-16T09:39:45;7.80;;;4.00;;
24619;SDS011;12763;55.802;37.404;2022-10-16T09:42:16;10.27;;;3.33;;
24619;SDS011;12763;55.802;37.404;2022-10-16T09:45:22;5.28;;;3.22;;
24619;SDS011;12763;55.802;37.404;2022-10-16T09:47:49;5.82;;;3.15;;
24619;SDS011;12763;55.802;37.404;2022-10-16T09:50:26;10.25;;;3.50;;
24619;SDS011;12763;55.802;37.404;2022-10-16T09:53:03;8.80;;;2.88;;
24619;SDS011;12763;55.802;37.404;2022-10-16T09:55:47;13.10;;;3.67;;
24619;SDS011;12763;55.802;37.404;2022-10-16T09:58:17;6.65;;;3.20;;
24619;SDS011;12763;55.802;37.404;2022-10-16T10:00:53;8.98;;;3.05;;
24619;SDS011;12763;55.802;37.404;2022-10-16T10:06:24;6.47;;;3.35;;
24619;SDS011;12763;55.802;37.404;2022-10-16T10:08:53;9.20;;;3.60;;
24619;SDS011;12763;55.802;37.404;2022-10-16T10:14:12;6.28;;;3.20;;
24619;SDS011;12763;55.802;37.404;2022-10-16T10:16:46;10.25;;;3.45;;
24619;SDS011;12763;55.802;37.404;2022-10-16T10:19:22;8.35;;;3.28;;
24619;SDS011;12763;55.802;37.404;2022-10-16T10:21:50;11.55;;;3.75;;
24619;SDS011;12763;55.802;37.404;2022-10-16T10:24:18;15.65;;;3.78;;
24619;SDS011;12763;55.802;37.404;2022-10-16T10:26:53;6.65;;;3.33;;
24619;SDS011;12763;55.802;37.404;2022-10-16T10:29:26;10.73;;;3.92;;
24619;SDS011;12763;55.802;37.404;2022-10-16T10:37:37;10.85;;;3.83;;
24619;SDS011;12763;55.802;37.404;2022-10-16T10:42:57;10.25;;;4.22;;
24619;SDS011;12763;55.802;37.404;2022-10-16T10:45:38;7.72;;;3.78;;
24619;SDS011;12763;55.802;37.404;2022-10-16T10:50:56;9.10;;;3.90;;
24619;SDS011;12763;55.802;37.404;2022-10-16T10:53:49;7.95;;;3.90;;
24619;SDS011;12763;55.802;37.404;2022-10-16T10:59:32;11.90;;;4.03;;
24619;SDS011;12763;55.802;37.404;2022-10-16T11:02:10;11.13;;;3.92;;
24619;SDS011;12763;55.802;37.404;2022-10-16T11:05:12;10.43;;;4.00;;
24619;SDS011;12763;55.802;37.404;2022-10-16T11:08:17;8.68;;;3.70;;
24619;SDS011;12763;55.802;37.404;2022-10-16T11:11:14;5.25;;;3.20;;
24619;SDS011;12763;55.802;37.404;2022-10-16T11:17:11;11.45;;;4.57;;
24619;SDS011;12763;55.802;37.404;2022-10-16T11:19:44;10.05;;;4.40;;
24619;SDS011;12763;55.802;37.404;2022-10-16T11:25:13;12.02;;;4.05;;
24619;SDS011;12763;55.802;37.404;2022-10-16T11:30:47;5.97;;;3.90;;
24619;SDS011;12763;55.802;37.404;2022-10-16T11:36:10;9.43;;;4.57;;
24619;SDS011;12763;55.802;37.404;2022-10-16T11:41:39;7.15;;;3.25;;
24619;SDS011;12763;55.802;37.404;2022-10-16T11:46:51;7.93;;;3.78;;
24619;SDS011;12763;55.802;37.404;2022-10-16T11:49:42;7.90;;;3.63;;
24619;SDS011;12763;55.802;37.404;2022-10-16T11:52:31;9.13;;;3.60;;
24619;SDS011;12763;55.802;37.404;2022-10-16T11:58:16;8.90;;;3.40;;
24619;SDS011;12763;55.802;37.404;2022-10-16T12:00:47;5.07;;;3.35;;
24619;SDS011;12763;55.802;37.404;2022-10-16T12:03:28;8.18;;;3.00;;
24619;SDS011;12763;55.802;37.404;2022-10-16T12:06:21;8.60;;;3.28;;
24619;SDS011;12763;55.802;37.404;2022-10-16T12:08:58;8.20;;;3.33;;
24619;SDS011;12763;55.802;37.404;2022-10-16T12:11:33;6.53;;;3.78;;
24619;SDS011;12763;55.802;37.404;2022-10-16T12:14:07;5.40;;;3.78;;
24619;SDS011;12763;55.802;37.404;2022-10-16T12:16:37;11.38;;;3.60;;
24619;SDS011;12763;55.802;37.404;2022-10-16T12:19:26;7.05;;;3.38;;
24619;SDS011;12763;55.802;37.404;2022-10-16T12:21:55;5.85;;;3.35;;
24619;SDS011;12763;55.802;37.404;2022-10-16T12:24:36;5.20;;;3.67;;
24619;SDS011;12763;55.802;37.404;2022-10-16T12:27:29;5.70;;;3.97;;
24619;SDS011;12763;55.802;37.404;2022-10-16T12:30:04;9.10;;;3.63;;
24619;SDS011;12763;55.802;37.404;2022-10-16T12:32:43;7.38;;;3.70;;
24619;SDS011;12763;55.802;37.404;2022-10-16T12:35:31;10.93;;;4.40;;
24619;SDS011;12763;55.802;37.404;2022-10-16T12:38:15;8.70;;;3.55;;
24619;SDS011;12763;55.802;37.404;2022-10-16T12:40:43;16.48;;;4.35;;
24619;SDS011;12763;55.802;37.404;2022-10-16T12:43:23;10.35;;;3.83;;
24619;SDS011;12763;55.802;37.404;2022-10-16T12:51:41;6.82;;;3.88;;
24619;SDS011;12763;55.802;37.404;2022-10-16T13:00:43;8.75;;;3.90;;
24619;SDS011;12763;55.802;37.404;2022-10-16T13:05:24;6.93;;;3.83;;
24619;SDS011;12763;55.802;37.404;2022-10-16T13:11:10;6.18;;;3.53;;
24619;SDS011;12763;55.802;37.404;2022-10-16T13:16:40;9.18;;;4.43;;
24619;SDS011;12763;55.802;37.404;2022-10-16T13:19:24;12.65;;;4.45;;
24619;SDS011;12763;55.802;37.404;2022-10-16T13:30:43;7.78;;;3.95;;
24619;SDS011;12763;55.802;37.404;2022-10-16T13:33:21;11.15;;;4.35;;
24619;SDS011;12763;55.802;37.404;2022-10-16T13:35:53;9.95;;;4.03;;
24619;SDS011;12763;55.802;37.404;2022-10-16T13:38:22;9.98;;;3.80;;
24619;SDS011;12763;55.802;37.404;2022-10-16T13:41:01;10.07;;;3.65;;
24619;SDS011;12763;55.802;37.404;2022-10-16T13:43:37;11.27;;;4.15;;
24619;SDS011;12763;55.802;37.404;2022-10-16T13:46:17;6.55;;;3.55;;
24619;SDS011;12763;55.802;37.404;2022-10-16T13:48:56;6.75;;;3.15;;
24619;SDS011;12763;55.802;37.404;2022-10-16T13:51:24;5.10;;;3.42;;
24619;SDS011;12763;55.802;37.404;2022-10-16T13:54:00;12.45;;;3.97;;
24619;SDS011;12763;55.802;37.404;2022-10-16T13:56:27;9.93;;;4.53;;
24619;SDS011;12763;55.802;37.404;2022-10-16T13:59:02;7.25;;;3.53;;
24619;SDS011;12763;55.802;37.404;2022-10-16T14:01:40;9.52;;;4.43;;
24619;SDS011;12763;55.802;37.404;2022-10-16T14:04:09;10.65;;;3.85;;
24619;SDS011;12763;55.802;37.404;2022-10-16T14:06:42;11.63;;;4.07;;
24619;SDS011;12763;55.802;37.404;2022-10-16T14:09:31;8.23;;;4.63;;
24619;SDS011;12763;55.802;37.404;2022-10-16T14:12:03;12.65;;;4.95;;
24619;SDS011;12763;55.802;37.404;2022-10-16T14:14:35;9.57;;;4.22;;
24619;SDS011;12763;55.802;37.404;2022-10-16T14:17:23;13.30;;;5.70;;
24619;SDS011;12763;55.802;37.404;2022-10-16T14:20:12;14.00;;;5.95;;
24619;SDS011;12763;55.802;37.404;2022-10-16T14:22:44;11.60;;;6.20;;
24619;SDS011;12763;55.802;37.404;2022-10-16T14:28:02;10.80;;;4.90;;
24619;SDS011;12763;55.802;37.404;2022-10-16T14:30:54;12.10;;;5.38;;
24619;SDS011;12763;55.802;37.404;2022-10-16T14:36:12;16.50;;;6.67;;
24619;SDS011;12763;55.802;37.404;2022-10-16T14:38:48;13.48;;;5.80;;
24619;SDS011;12763;55.802;37.404;2022-10-16T14:41:50;20.70;;;5.88;;
24619;SDS011;12763;55.802;37.404;2022-10-16T14:44:27;11.77;;;5.88;;
24619;SDS011;12763;55.802;37.404;2022-10-16T14:46:57;17.00;;;6.07;;
24619;SDS011;12763;55.802;37.404;2022-10-16T14:49:25;9.30;;;4.88;;
24619;SDS011;12763;55.802;37.404;2022-10-16T14:51:58;14.70;;;6.32;;
24619;SDS011;12763;55.802;37.404;2022-10-16T14:57:00;12.07;;;5.28;;
24619;SDS011;12763;55.802;37.404;2022-10-16T14:59:37;10.30;;;5.40;;
24619;SDS011;12763;55.802;37.404;2022-10-16T15:02:18;14.38;;;5.32;;
24619;SDS011;12763;55.802;37.404;2022-10-16T15:04:45;11.68;;;4.97;;
24619;SDS011;12763;55.802;37.404;2022-10-16T15:07:23;13.13;;;6.03;;
24619;SDS011;12763;55.802;37.404;2022-10-16T15:09:50;10.80;;;5.15;;
24619;SDS011;12763;55.802;37.404;2022-10-16T15:12:20;15.10;;;6.63;;
24619;SDS011;12763;55.802;37.404;2022-10-16T15:14:49;28.27;;;5.93;;
24619;SDS011;12763;55.802;37.404;2022-10-16T15:17:16;18.55;;;6.68;;
24619;SDS011;12763;55.802;37.404;2022-10-16T15:19:45;17.08;;;5.93;;
24619;SDS011;12763;55.802;37.404;2022-10-16T15:22:12;19.00;;;5.78;;
24619;SDS011;12763;55.802;37.404;2022-10-16T15:24:39;20.77;;;6.68;;
24619;SDS011;12763;55.802;37.404;2022-10-16T15:27:05;13.05;;;6.00;;
24619;SDS011;12763;55.802;37.404;2022-10-16T15:29:31;22.10;;;6.13;;
24619;SDS011;12763;55.802;37.404;2022-10-16T15:31:58;15.73;;;6.30;;
24619;SDS011;12763;55.802;37.404;2022-10-16T15:34:31;18.10;;;6.80;;
24619;SDS011;12763;55.802;37.404;2022-10-16T15:37:03;15.82;;;6.82;;
24619;SDS011;12763;55.802;37.404;2022-10-16T15:39:32;16.25;;;6.22;;
24619;SDS011;12763;55.802;37.404;2022-10-16T15:42:08;17.00;;;6.65;;
24619;SDS011;12763;55.802;37.404;2022-10-16T15:44:36;11.60;;;5.75;;
24619;SDS011;12763;55.802;37.404;2022-10-16T15:47:02;14.40;;;6.90;;
24619;SDS011;12763;55.802;37.404;2022-10-16T15:49:29;22.55;;;6.07;;
24619;SDS011;12763;55.802;37.404;2022-10-16T15:51:59;18.55;;;6.07;;
24619;SDS011;12763;55.802;37.404;2022-10-16T15:54:30;13.52;;;5.95;;
24619;SDS011;12763;55.802;37.404;2022-10-16T15:56:59;13.00;;;6.25;;
24619;SDS011;12763;55.802;37.404;2022-10-16T15:59:27;27.23;;;5.97;;
24619;SDS011;12763;55.802;37.404;2022-10-16T16:02:00;18.77;;;5.85;;
24619;SDS011;12763;55.802;37.404;2022-10-16T16:04:29;8.07;;;5.00;;
24619;SDS011;12763;55.802;37.404;2022-10-16T16:07:02;18.85;;;5.65;;
24619;SDS011;12763;55.802;37.404;2022-10-16T16:09:37;15.82;;;6.28;;
24619;SDS011;12763;55.802;37.404;2022-10-16T16:12:05;11.25;;;5.38;;
24619;SDS011;12763;55.802;37.404;2022-10-16T16:14:40;13.30;;;6.18;;
24619;SDS011;12763;55.802;37.404;2022-10-16T16:17:08;18.30;;;5.60;;
24619;SDS011;12763;55.802;37.404;2022-10-16T16:19:34;13.02;;;5.57;;
24619;SDS011;12763;55.802;37.404;2022-10-16T16:22:04;14.80;;;6.35;;
24619;SDS011;12763;55.802;37.404;2022-10-16T16:24:34;18.70;;;5.97;;
24619;SDS011;12763;55.802;37.404;2022-10-16T16:27:01;12.90;;;5.53;;
24619;SDS011;12763;55.802;37.404;2022-10-16T16:29:33;12.25;;;5.63;;
24619;SDS011;12763;55.802;37.404;2022-10-16T16:32:00;9.95;;;5.03;;
24619;SDS011;12763;55.802;37.404;2022-10-16T16:34:26;11.60;;;5.63;;
24619;SDS011;12763;55.802;37.404;2022-10-16T16:36:54;13.02;;;5.60;;
24619;SDS011;12763;55.802;37.404;2022-10-16T16:39:21;12.32;;;5.25;;
24619;SDS011;12763;55.802;37.404;2022-10-16T16:41:49;12.38;;;5.53;;
24619;SDS011;12763;55.802;37.404;2022-10-16T16:44:16;9.90;;;5.05;;
24619;SDS011;12763;55.802;37.404;2022-10-16T16:46:45;8.70;;;4.57;;
24619;SDS011;12763;55.802;37.404;2022-10-16T16:49:13;12.80;;;5.18;;
24619;SDS011;12763;55.802;37.404;2022-10-16T16:51:47;10.05;;;4.97;;
24619;SDS011;12763;55.802;37.404;2022-10-16T16:54:17;8.00;;;4.03;;
24619;SDS011;12763;55.802;37.404;2022-10-16T16:56:43;16.63;;;5.25;;
24619;SDS011;12763;55.802;37.404;2022-10-16T16:59:13;11.55;;;5.43;;
24619;SDS011;12763;55.802;37.404;2022-10-16T17:01:45;17.95;;;5.43;;
24619;SDS011;12763;55.802;37.404;2022-10-16T17:04:12;10.52;;;5.22;;
24619;SDS011;12763;55.802;37.404;2022-10-16T17:06:41;10.90;;;5.32;;
24619;SDS011;12763;55.802;37.404;2022-10-16T17:09:08;11.73;;;4.80;;